Front Runner — 3FRP5 — position and weather

sailwx.info

Track history (hours):
 
Tides and Currents Weather Stations Pressure Air Temp Water Temp Dewpoint Dewpoint Depression Visibility Wind Speed Wind Dir Waves Ship Positions

Front Runner

Last reported at 2014-Jul-24 12:33 UTC. Time now 2014-Jul-24 14:38 UTC.
Position N 36°41' E 026°43'.

Length 190 m; draft 11.8 m.

Type: Cargo ship. MMSI: 357941000.

Date/timePositionNaut miles runAvg speedWind from/ knotsBaromVisibWave heightAir tempDewpointWater temp
2014-Jul-24 12:33N 36°41' E 026°43'1212.1
2014-Jul-24 11:31N 36°53' E 026°39'1211.2
2014-Jul-24 10:27N 37°04' E 026°33'1011.6
2014-Jul-24 09:33N 37°10' E 026°23'1111.5
2014-Jul-24 08:33N 37°17' E 026°11'1211.6
2014-Jul-24 07:33N 37°24' E 025°59'1211.8
2014-Jul-24 06:33N 37°31' E 025°48'1212.1
2014-Jul-24 05:32N 37°43' E 025°43'1211.7
2014-Jul-24 04:33N 37°54' E 025°38'1311.9
2014-Jul-24 03:30N 38°05' E 025°32'1111.7
2014-Jul-24 02:33N 38°16' E 025°28'1211.7
2014-Jul-24 01:33N 38°27' E 025°23'1211.7
2014-Jul-24 00:33N 38°38' E 025°19'1711.1
2014-Jul-23 23:03N 38°55' E 025°15'611.7
2014-Jul-23 22:33N 38°60' E 025°19'1211.9
2014-Jul-23 21:32N 39°11' E 025°25'1311.9
2014-Jul-23 20:27N 39°23' E 025°32'1311.8
2014-Jul-23 19:23N 39°34' E 025°39'1011.7
2014-Jul-23 18:34N 39°43' E 025°44'1211.9
2014-Jul-23 17:33N 39°53' E 025°51'1511.1
2014-Jul-23 16:11N 40°01' E 026°08'1810.4
2014-Jul-23 14:26N 40°13' E 026°26'2310.2
2014-Jul-23 12:10N 40°28' E 026°50'8210.8
2014-Jul-23 04:32N 40°53' E 028°33'1111.4
2014-Jul-23 03:32N 40°54' E 028°48'8 8.3
2014-Jul-23 02:34N 40°59' E 028°57'0 0.5
2014-Jul-23 01:34N 40°59' E 028°57'0 0.0
2014-Jul-23 00:28N 40°59' E 028°57'0 0.1
2014-Jul-22 23:31N 40°59' E 028°57'3 2.7
2014-Jul-22 22:33N 41°00' E 028°60'24 1.8
2014-Jul-22 09:31N 41°23' E 029°08'253 9.0
2014-Jul-21 05:34N 45°26' E 030°45'6210.3
2014-Jul-20 23:32N 46°28' E 030°49'5 4.9
2014-Jul-20 22:34N 46°31' E 030°44'0 0.1
2014-Jul-20 20:26N 46°30' E 030°44'0 0.0
2014-Jul-20 18:26N 46°31' E 030°44'0 0.0
2014-Jul-19 05:32N 46°30' E 030°44'0 0.0
2014-Jul-19 04:20N 46°30' E 030°44'0 0.0
2014-Jul-18 17:08N 46°31' E 030°44'0 0.0
2014-Jul-17 03:20N 46°30' E 030°44'0 0.0
2014-Jul-17 01:08N 46°30' E 030°44'0 0.0
2014-Jul-17 00:32N 46°30' E 030°44'0 0.0
2014-Jul-16 16:14N 46°30' E 030°44'  
Track history (hours):
 
Tides and Currents Weather Stations Pressure Air Temp Water Temp Dewpoint Dewpoint Depression Visibility Wind Speed Wind Dir Waves Ship Positions

Front Runner

Last reported at 2014-Jul-24 12:33 UTC. Time now 2014-Jul-24 14:38 UTC.
Position N 36°41' E 026°43'.

Length 190 m; draft 11.8 m.

Type: Cargo ship. MMSI: 357941000.

Date/timePositionNaut miles runAvg speedWind from/ knotsBaromVisibWave heightAir tempDewpointWater temp
2014-Jul-24 12:33N 36°41' E 026°43'1212.1
2014-Jul-24 11:31N 36°53' E 026°39'1211.2
2014-Jul-24 10:27N 37°04' E 026°33'1011.6
2014-Jul-24 09:33N 37°10' E 026°23'1111.5
2014-Jul-24 08:33N 37°17' E 026°11'1211.6
2014-Jul-24 07:33N 37°24' E 025°59'1211.8
2014-Jul-24 06:33N 37°31' E 025°48'1212.1
2014-Jul-24 05:32N 37°43' E 025°43'1211.7
2014-Jul-24 04:33N 37°54' E 025°38'1311.9
2014-Jul-24 03:30N 38°05' E 025°32'1111.7
2014-Jul-24 02:33N 38°16' E 025°28'1211.7
2014-Jul-24 01:33N 38°27' E 025°23'1211.7
2014-Jul-24 00:33N 38°38' E 025°19'1711.1
2014-Jul-23 23:03N 38°55' E 025°15'611.7
2014-Jul-23 22:33N 38°60' E 025°19'1211.9
2014-Jul-23 21:32N 39°11' E 025°25'1311.9
2014-Jul-23 20:27N 39°23' E 025°32'1311.8
2014-Jul-23 19:23N 39°34' E 025°39'1011.7
2014-Jul-23 18:34N 39°43' E 025°44'1211.9
2014-Jul-23 17:33N 39°53' E 025°51'1511.1
2014-Jul-23 16:11N 40°01' E 026°08'1810.4
2014-Jul-23 14:26N 40°13' E 026°26'2310.2
2014-Jul-23 12:10N 40°28' E 026°50'8210.8
2014-Jul-23 04:32N 40°53' E 028°33'1111.4
2014-Jul-23 03:32N 40°54' E 028°48'8 8.3
2014-Jul-23 02:34N 40°59' E 028°57'0 0.5
2014-Jul-23 01:34N 40°59' E 028°57'0 0.0
2014-Jul-23 00:28N 40°59' E 028°57'0 0.1
2014-Jul-22 23:31N 40°59' E 028°57'3 2.7
2014-Jul-22 22:33N 41°00' E 028°60'24 1.8
2014-Jul-22 09:31N 41°23' E 029°08'253 9.0
2014-Jul-21 05:34N 45°26' E 030°45'6210.3
2014-Jul-20 23:32N 46°28' E 030°49'5 4.9
2014-Jul-20 22:34N 46°31' E 030°44'0 0.1
2014-Jul-20 20:26N 46°30' E 030°44'0 0.0
2014-Jul-20 18:26N 46°31' E 030°44'0 0.0
2014-Jul-19 05:32N 46°30' E 030°44'0 0.0
2014-Jul-19 04:20N 46°30' E 030°44'0 0.0
2014-Jul-18 17:08N 46°31' E 030°44'0 0.0
2014-Jul-17 03:20N 46°30' E 030°44'0 0.0
2014-Jul-17 01:08N 46°30' E 030°44'0 0.0
2014-Jul-17 00:32N 46°30' E 030°44'0 0.0
2014-Jul-16 16:14N 46°30' E 030°44'  

Dump ship's entire track history